createdAt,value
2023-04-16T00:03:04.380Z,8.60
2023-04-16T00:07:11.346Z,8.50
2023-04-16T00:11:18.375Z,8.50
2023-04-16T00:15:25.021Z,8.60
2023-04-16T00:19:31.741Z,8.60
2023-04-16T00:23:38.496Z,8.60
2023-04-16T00:27:45.166Z,8.60
2023-04-16T00:31:52.037Z,8.60
2023-04-16T00:35:58.998Z,8.70
2023-04-16T00:40:06.452Z,8.70
2023-04-16T00:44:13.114Z,8.70
2023-04-16T00:48:21.759Z,8.70
2023-04-16T00:52:29.367Z,8.70
2023-04-16T00:56:36.693Z,8.60
2023-04-16T01:00:43.346Z,8.60
2023-04-16T01:04:50.321Z,8.70
2023-04-16T01:08:57.037Z,8.60
2023-04-16T01:13:03.687Z,8.60
2023-04-16T01:17:10.566Z,8.60
2023-04-16T01:21:17.223Z,8.70
2023-04-16T01:25:23.974Z,8.80
2023-04-16T01:29:30.772Z,8.70
2023-04-16T01:33:37.425Z,8.70
2023-04-16T01:37:44.772Z,8.70
2023-04-16T01:41:51.577Z,8.70
2023-04-16T01:46:31.154Z,8.70
2023-04-16T01:50:37.935Z,8.70
2023-04-16T01:54:44.584Z,8.70
2023-04-16T01:58:52.580Z,8.70
2023-04-16T02:02:59.516Z,8.70
2023-04-16T02:07:06.786Z,8.70
2023-04-16T02:11:13.608Z,8.70
2023-04-16T02:15:20.429Z,8.70
2023-04-16T02:19:27.518Z,8.70
2023-04-16T02:23:34.196Z,8.60
2023-04-16T02:27:40.993Z,8.70
2023-04-16T02:31:47.740Z,8.70
2023-04-16T02:35:54.429Z,8.80
2023-04-16T02:40:01.102Z,8.80
2023-04-16T02:44:07.748Z,8.80
2023-04-16T02:48:14.412Z,8.80
2023-04-16T02:52:21.056Z,8.70
2023-04-16T02:56:27.848Z,8.70
2023-04-16T03:00:34.480Z,8.70
2023-04-16T03:04:41.184Z,8.80
2023-04-16T03:08:47.866Z,8.80
2023-04-16T03:12:54.594Z,8.80
2023-04-16T03:17:01.399Z,8.80
2023-04-16T03:21:08.058Z,8.70
2023-04-16T03:25:14.789Z,8.80
2023-04-16T03:29:21.422Z,8.90
2023-04-16T03:33:28.092Z,8.90
2023-04-16T03:37:35.366Z,8.90
2023-04-16T03:41:42.006Z,8.80
2023-04-16T03:45:48.670Z,8.80
2023-04-16T03:49:55.418Z,8.80
2023-04-16T03:54:02.081Z,8.10
2023-04-16T03:58:08.770Z,8.90
2023-04-16T04:02:15.552Z,8.90
2023-04-16T04:06:22.414Z,9.00
2023-04-16T04:10:29.050Z,9.00
2023-04-16T04:14:39.726Z,9.10
2023-04-16T04:18:46.470Z,9.10
2023-04-16T04:22:53.116Z,9.00
2023-04-16T04:26:59.778Z,8.80
2023-04-16T04:31:06.501Z,8.90
2023-04-16T04:35:13.193Z,9.00
2023-04-16T04:39:21.648Z,8.90
2023-04-16T04:43:28.335Z,9.00
2023-04-16T04:47:35.031Z,9.00
2023-04-16T04:51:41.884Z,8.90
2023-04-16T04:55:52.274Z,8.90
2023-04-16T05:00:03.345Z,9.00
2023-04-16T05:04:10.054Z,9.10
2023-04-16T05:08:16.837Z,9.10
2023-04-16T05:12:23.584Z,9.20
2023-04-16T05:16:30.508Z,9.80
2023-04-16T05:20:37.840Z,9.20
2023-04-16T05:24:45.408Z,9.10
2023-04-16T05:28:52.100Z,9.10
2023-04-16T05:32:58.887Z,9.10
2023-04-16T05:37:05.538Z,9.10
2023-04-16T05:41:12.185Z,9.00
2023-04-16T05:45:18.865Z,9.10
2023-04-16T05:49:25.487Z,9.10
2023-04-16T05:53:32.130Z,9.10
2023-04-16T05:57:38.771Z,9.10
2023-04-16T06:01:45.642Z,9.10
2023-04-16T06:05:52.366Z,9.20
2023-04-16T06:09:59.020Z,9.20
2023-04-16T06:14:05.773Z,9.20
2023-04-16T06:18:12.526Z,9.30
2023-04-16T06:22:19.301Z,9.30
2023-04-16T06:26:26.663Z,9.20
2023-04-16T06:30:33.634Z,9.20
2023-04-16T06:34:40.641Z,9.20
2023-04-16T06:38:47.290Z,9.40
2023-04-16T06:42:54.264Z,9.60
2023-04-16T06:47:00.928Z,9.70
2023-04-16T06:51:07.651Z,9.80
2023-04-16T06:55:14.372Z,9.70
2023-04-16T06:59:21.010Z,9.70
2023-04-16T07:03:28.023Z,9.80
2023-04-16T07:07:35.619Z,9.90
2023-04-16T07:11:42.415Z,10.00
2023-04-16T07:15:49.055Z,10.10
2023-04-16T07:19:55.733Z,10.20
2023-04-16T07:24:03.136Z,10.10
2023-04-16T07:28:09.860Z,10.30
2023-04-16T07:32:16.859Z,10.40
2023-04-16T07:36:23.563Z,10.60
2023-04-16T07:40:30.267Z,10.70
2023-04-16T07:44:36.938Z,10.70
2023-04-16T07:48:43.660Z,10.50
2023-04-16T07:52:50.418Z,10.50
2023-04-16T07:56:57.081Z,10.50
2023-04-16T08:01:03.860Z,10.60
2023-04-16T08:05:11.233Z,11.60
2023-04-16T08:09:21.036Z,10.60
2023-04-16T08:13:27.774Z,10.70
2023-04-16T08:17:35.485Z,10.60
2023-04-16T08:21:42.296Z,10.70
2023-04-16T08:25:48.935Z,10.70
2023-04-16T08:29:55.752Z,11.00
2023-04-16T08:34:02.494Z,11.30
2023-04-16T08:38:09.298Z,11.40
2023-04-16T08:42:30.160Z,11.40
2023-04-16T08:46:38.188Z,11.60
2023-04-16T08:50:46.565Z,11.80
2023-04-16T08:55:04.059Z,11.90
2023-04-16T08:59:11.473Z,12.00
2023-04-16T09:03:21.610Z,12.00
2023-04-16T09:07:31.033Z,12.30
2023-04-16T09:11:39.388Z,12.50
2023-04-16T09:15:46.416Z,12.40
2023-04-16T09:19:54.248Z,12.50
2023-04-16T09:24:02.276Z,12.90
2023-04-16T09:28:10.414Z,13.10
2023-04-16T09:32:17.201Z,13.30
2023-04-16T09:36:23.935Z,13.30
2023-04-16T09:40:31.278Z,13.50
2023-04-16T09:44:38.926Z,13.60
2023-04-16T09:48:46.050Z,13.90
2023-04-16T09:52:52.749Z,13.90
2023-04-16T09:57:01.362Z,13.50
2023-04-16T10:01:13.017Z,13.40
2023-04-16T10:05:20.265Z,13.50
2023-04-16T10:09:31.443Z,13.40
2023-04-16T10:13:39.312Z,13.40
2023-04-16T10:17:46.446Z,13.50
2023-04-16T10:21:54.728Z,13.80
2023-04-16T10:26:02.152Z,14.10
2023-04-16T10:30:11.043Z,14.60
2023-04-16T10:34:19.567Z,15.10
2023-04-16T10:38:27.884Z,15.10
2023-04-16T10:42:34.597Z,15.20
2023-04-16T10:46:51.544Z,15.80
2023-04-16T10:50:58.728Z,15.90
2023-04-16T10:55:06.248Z,16.20
2023-04-16T10:59:13.692Z,16.30
2023-04-16T11:03:20.954Z,16.10
2023-04-16T11:07:35.109Z,16.00
2023-04-16T11:11:41.953Z,16.00
2023-04-16T11:15:48.771Z,15.90
2023-04-16T11:19:55.994Z,15.70
2023-04-16T11:24:02.725Z,15.50
2023-04-16T11:28:09.363Z,15.40
2023-04-16T11:32:22.780Z,15.30
2023-04-16T11:36:43.292Z,15.50
2023-04-16T11:40:51.523Z,15.80
2023-04-16T11:45:02.352Z,16.10
2023-04-16T11:49:09.556Z,16.10
2023-04-16T11:53:16.557Z,16.10
2023-04-16T11:57:31.058Z,16.00
2023-04-16T12:01:39.156Z,16.40
2023-04-16T12:05:46.036Z,16.80
2023-04-16T12:10:08.256Z,16.70
2023-04-16T12:14:15.325Z,16.00
2023-04-16T12:18:26.201Z,16.00
2023-04-16T12:22:37.574Z,16.10
2023-04-16T12:26:52.340Z,16.40
2023-04-16T12:30:59.345Z,16.30
2023-04-16T12:35:06.376Z,16.20
2023-04-16T12:39:14.469Z,16.10
2023-04-16T12:43:21.559Z,15.80
2023-04-16T12:47:28.235Z,15.60
2023-04-16T12:51:35.862Z,15.50
2023-04-16T12:55:42.548Z,15.50
2023-04-16T12:59:49.165Z,15.30
2023-04-16T13:03:56.197Z,15.20
2023-04-16T13:08:02.971Z,15.10
2023-04-16T13:12:09.677Z,15.00
2023-04-16T13:16:16.459Z,14.90
2023-04-16T13:20:24.547Z,14.70
2023-04-16T13:24:31.326Z,14.80
2023-04-16T13:28:38.015Z,15.00
2023-04-16T13:32:44.755Z,14.90
2023-04-16T13:36:51.435Z,15.00
2023-04-16T13:40:58.116Z,15.00
2023-04-16T13:45:05.190Z,15.00
2023-04-16T13:49:11.964Z,15.00
2023-04-16T13:53:18.756Z,14.90
2023-04-16T13:57:26.251Z,15.00
2023-04-16T14:01:33.035Z,15.00
2023-04-16T14:05:41.037Z,14.70
2023-04-16T14:09:47.755Z,14.30
2023-04-16T14:13:54.749Z,14.10
2023-04-16T14:18:02.591Z,14.00
2023-04-16T14:22:09.564Z,14.10
2023-04-16T14:26:16.408Z,14.00
2023-04-16T14:30:23.128Z,13.90
2023-04-16T14:34:29.775Z,14.00
2023-04-16T14:38:36.468Z,14.40
2023-04-16T14:42:43.139Z,14.60
2023-04-16T14:46:49.843Z,14.90
2023-04-16T14:50:56.573Z,15.40
2023-04-16T14:55:03.344Z,15.50
2023-04-16T14:59:10.327Z,15.40
2023-04-16T15:03:17.391Z,15.20
2023-04-16T15:07:26.225Z,15.40
2023-04-16T15:11:32.914Z,15.50
2023-04-16T15:15:39.657Z,14.90
2023-04-16T15:19:46.399Z,14.50
2023-04-16T15:23:53.740Z,14.00
2023-04-16T15:28:02.488Z,13.90
2023-04-16T15:32:09.183Z,14.00
2023-04-16T15:36:16.329Z,13.90
2023-04-16T15:40:24.189Z,14.10
2023-04-16T15:44:31.418Z,14.30
2023-04-16T15:48:38.093Z,14.20
2023-04-16T15:52:48.406Z,14.20
2023-04-16T15:56:55.075Z,14.10
2023-04-16T16:01:02.474Z,14.30
2023-04-16T16:05:18.655Z,14.60
2023-04-16T16:09:28.083Z,14.60
2023-04-16T16:13:36.888Z,14.70
2023-04-16T16:17:43.611Z,14.70
2023-04-16T16:21:50.738Z,14.60
2023-04-16T16:25:57.611Z,14.60
2023-04-16T16:30:06.580Z,14.50
2023-04-16T16:34:20.354Z,14.40
2023-04-16T16:38:27.714Z,14.20
2023-04-16T16:42:34.580Z,14.00
2023-04-16T16:46:41.353Z,13.80
2023-04-16T16:50:48.115Z,13.50
2023-04-16T16:54:56.724Z,13.50
2023-04-16T16:59:03.897Z,13.40
2023-04-16T17:03:10.846Z,13.30
2023-04-16T17:07:17.697Z,13.20
2023-04-16T17:11:26.966Z,13.10
2023-04-16T17:15:33.803Z,12.90
2023-04-16T17:19:40.605Z,12.90
2023-04-16T17:23:47.247Z,12.60
2023-04-16T17:27:53.993Z,12.60
2023-04-16T17:32:00.964Z,12.40
2023-04-16T17:36:08.929Z,12.30
2023-04-16T17:40:18.157Z,12.40
2023-04-16T17:44:25.753Z,12.20
2023-04-16T17:48:32.443Z,12.10
2023-04-16T17:52:39.164Z,12.20
2023-04-16T17:56:46.228Z,12.00
2023-04-16T18:00:53.463Z,12.00
2023-04-16T18:05:00.434Z,13.70
2023-04-16T18:09:07.099Z,12.00
2023-04-16T18:13:13.845Z,12.00
2023-04-16T18:17:22.687Z,11.90
2023-04-16T18:21:30.349Z,11.70
2023-04-16T18:25:37.208Z,11.70
2023-04-16T18:29:45.271Z,11.70
2023-04-16T18:33:56.285Z,11.60
2023-04-16T18:38:04.326Z,12.10
2023-04-16T18:42:10.970Z,11.40
2023-04-16T18:46:17.739Z,11.40
2023-04-16T18:50:25.730Z,11.50
2023-04-16T18:54:32.407Z,11.20
2023-04-16T18:58:39.093Z,11.20
2023-04-16T19:02:45.997Z,11.20
2023-04-16T19:06:52.866Z,11.60
2023-04-16T19:10:59.791Z,11.10
2023-04-16T19:15:06.919Z,11.10
2023-04-16T19:19:13.912Z,11.00
2023-04-16T19:23:21.127Z,11.00
2023-04-16T19:27:29.330Z,10.90
2023-04-16T19:31:36.194Z,11.00
2023-04-16T19:35:43.243Z,10.90
2023-04-16T19:39:49.940Z,10.80
2023-04-16T19:43:56.637Z,10.80
2023-04-16T19:48:03.501Z,10.80
2023-04-16T19:52:10.438Z,10.80
2023-04-16T19:56:17.566Z,10.80
2023-04-16T20:00:25.398Z,10.80
2023-04-16T20:04:32.129Z,10.70
2023-04-16T20:08:39.593Z,10.70
2023-04-16T20:12:46.354Z,10.70
2023-04-16T20:16:53.772Z,10.60
2023-04-16T20:21:04.306Z,10.70
2023-04-16T20:25:11.500Z,10.60
2023-04-16T20:29:18.355Z,10.50
2023-04-16T20:33:25.290Z,10.40
2023-04-16T20:37:32.521Z,11.00
2023-04-16T20:41:45.887Z,10.50
2023-04-16T20:45:52.675Z,10.50
2023-04-16T20:50:01.768Z,10.50
2023-04-16T20:54:10.131Z,10.30
2023-04-16T20:58:16.780Z,10.30
2023-04-16T21:02:24.317Z,10.10
2023-04-16T21:06:32.925Z,10.10
2023-04-16T21:10:40.774Z,10.10
2023-04-16T21:14:47.448Z,10.00
2023-04-16T21:18:54.344Z,10.10
2023-04-16T21:23:02.455Z,10.00
2023-04-16T21:27:09.456Z,10.00
2023-04-16T21:31:17.258Z,9.90
2023-04-16T21:35:24.408Z,9.90
2023-04-16T21:39:31.165Z,9.80
2023-04-16T21:43:37.869Z,9.80
2023-04-16T21:47:44.674Z,9.80
2023-04-16T21:51:58.891Z,9.90
2023-04-16T21:56:06.470Z,9.90
2023-04-16T22:00:13.902Z,9.70
2023-04-16T22:04:26.417Z,9.60
2023-04-16T22:08:33.047Z,9.60
2023-04-16T22:12:40.028Z,9.50
2023-04-16T22:16:49.725Z,9.50
2023-04-16T22:20:56.597Z,9.40
2023-04-16T22:25:03.729Z,9.40
2023-04-16T22:29:10.753Z,9.30
2023-04-16T22:33:17.756Z,9.40
2023-04-16T22:37:24.782Z,9.30
2023-04-16T22:41:31.422Z,9.30
2023-04-16T22:45:38.132Z,9.30
2023-04-16T22:49:44.829Z,9.30
2023-04-16T22:53:51.984Z,9.60
2023-04-16T22:57:58.677Z,9.30
2023-04-16T23:02:05.408Z,9.30
2023-04-16T23:06:12.108Z,9.30
2023-04-16T23:10:20.867Z,9.40
2023-04-16T23:14:27.682Z,9.30
2023-04-16T23:18:34.597Z,9.20
2023-04-16T23:22:41.611Z,9.20
2023-04-16T23:26:48.310Z,9.20
2023-04-16T23:30:55.006Z,9.20
2023-04-16T23:35:01.856Z,9.20
2023-04-16T23:39:08.775Z,9.10
2023-04-16T23:43:15.639Z,9.10
2023-04-16T23:47:23.206Z,9.20
2023-04-16T23:51:29.902Z,9.10
2023-04-16T23:55:37.911Z,9.10
2023-04-16T23:59:44.542Z,9.00
